Latest Weather Observations for Cairns

IDQ60801

Issued at 10:35 am EST Saturday 25 October 2014 (issued every 30 minutes, with the page automatically refreshed every 10 minutes)

About weather observations | Map of weather stations | Latest weather observations for QLD | Other Formats
Station Details ID: 031011 Name: CAIRNS AERO Lat: -16.87 Lon: 145.75 Height: 2.22 m
Data from the previous 72 hours. | See also: Recent months at Cairns
Date/Time
EST
Temp
°C
App
Temp
°C
Dew
Point
Rel
Hum
%
Delta-T
°C
Wind Press
QNH
hPa
Press
MSL
hPa
Rain
since 9 am
mm
Dir
 
Spd
km/h
Gust
km/h
Spd
kts
Gust
kts
25/10:30am 27.4 22.8 14.6 45 7.7 SE 32 43 17 23 1018.5 - 0.0
25/10:00am 28.2 23.4 12.8 38 9.0 ESE 30 39 16 21 1018.7 - 0.0
25/09:30am 27.7 22.4 12.6 39 8.8 ESE 32 37 17 20 1019.0 - 0.0
25/09:00am 26.4 21.3 13.0 43 7.8 ESE 32 43 17 23 1019.1 1019.0 0.2
25/08:30am 25.6 22.1 13.3 46 7.2 ESE 24 28 13 15 1019.0 - 0.2
25/08:00am 25.6 22.9 14.7 51 6.5 SSE 22 32 12 17 1018.9 - 0.2
25/07:30am 24.1 22.1 15.6 59 5.1 SSE 20 32 11 17 1018.5 - 0.2
25/07:00am 23.0 20.6 15.3 62 4.6 SSE 22 30 12 16 1018.0 - 0.2
25/06:30am 22.0 20.5 15.3 65 4.0 SSE 17 22 9 12 1017.7 - 0.2
25/06:00am 20.9 19.6 15.9 73 3.0 SSE 17 24 9 13 1017.5 1017.4 0.2
25/05:30am 21.2 19.6 16.0 72 3.1 SSE 19 28 10 15 1017.2 - 0.2
25/05:00am 21.9 20.1 16.1 69 3.5 S 20 32 11 17 1016.9 - 0.2
25/04:30am 21.7 20.1 16.4 72 3.2 S 20 30 11 16 1016.8 - 0.2
25/04:00am 21.9 21.0 16.8 73 3.1 S 17 28 9 15 1016.9 - 0.2
25/03:30am 21.5 20.6 16.9 75 2.8 S 17 24 9 13 1016.8 - 0.2
25/03:00am 21.2 20.6 16.6 75 2.8 SSE 15 19 8 10 1016.9 1016.8 0.2
25/02:30am 21.5 21.2 16.5 73 3.0 S 13 19 7 10 1016.9 - 0.2
25/02:00am 21.7 21.5 16.6 73 3.1 S 13 20 7 11 1017.0 - 0.2
25/01:30am 21.6 21.0 16.7 73 3.0 S 15 20 8 11 1017.4 - 0.2
25/01:00am 21.9 21.4 17.0 73 3.0 SSE 15 20 8 11 1017.7 - 0.2
25/12:30am 22.1 20.9 16.1 69 3.6 SSE 17 19 9 10 1018.1 - 0.2
25/12:00am 21.6 20.9 17.4 77 2.6 SSE 17 20 9 11 1018.4 1018.3 0.2
 
Date/Time
EST
Temp
°C
App
Temp
°C
Dew
Point
Rel
Hum
%
Delta-T
°C
Wind Press
QNH
hPa
Press
MSL
hPa
Rain
since 9 am
mm
Dir
 
Spd
km/h
Gust
km/h
Spd
kts
Gust
kts
24/11:30pm 21.7 21.3 18.0 79 2.3 SSE 17 26 9 14 1018.6 - 0.2
24/11:00pm 21.8 21.0 18.1 79 2.3 SSE 19 26 10 14 1018.8 - 0.2
24/10:30pm 22.5 21.8 17.3 72 3.2 S 17 28 9 15 1018.9 - 0.2
24/09:30pm 22.9 21.2 17.2 70 3.5 SSE 22 32 12 17 1018.6 - 0.2
24/09:00pm 22.9 21.6 17.2 70 3.5 SSE 20 28 11 15 1018.3 1018.2 0.2
24/08:30pm 22.9 22.0 16.9 69 3.7 SSE 17 28 9 15 1018.1 - 0.2
24/08:00pm 23.1 22.1 16.7 67 3.9 SSE 17 26 9 14 1017.9 - 0.2
24/07:30pm 23.4 22.0 17.1 67 3.9 SSE 20 32 11 17 1017.5 - 0.2
24/07:00pm 23.7 20.8 17.0 66 4.1 SE 28 35 15 19 1017.3 - 0.2
24/06:30pm 24.1 21.0 16.6 63 4.6 SE 28 35 15 19 1017.1 - 0.2
24/06:00pm 24.9 22.0 16.0 57 5.4 ESE 26 33 14 18 1016.7 1016.6 0.2
24/05:30pm 25.7 21.9 14.7 50 6.6 ESE 28 37 15 20 1016.5 - 0.2
24/05:00pm 26.7 21.6 13.0 42 8.0 ESE 32 44 17 24 1016.1 - 0.2
24/04:30pm 27.0 21.7 13.2 42 8.1 ESE 33 50 18 27 1015.8 - 0.2
24/04:00pm 27.4 21.5 12.4 39 8.7 ESE 35 44 19 24 1015.7 - 0.2
24/03:30pm 28.3 22.2 11.8 36 9.5 ESE 35 43 19 23 1015.8 - 0.2
24/03:00pm 27.6 22.0 12.0 38 9.0 ESE 33 44 18 24 1015.9 1015.8 0.2
24/02:30pm 27.9 23.4 14.8 44 7.9 ESE 32 39 17 21 1016.0 - 0.2
24/02:00pm 27.9 23.0 14.2 43 8.2 ESE 33 43 18 23 1016.2 - 0.2
24/01:30pm 28.0 23.1 13.7 41 8.5 ESE 32 39 17 21 1016.6 - 0.2
24/01:00pm 27.8 22.8 13.4 41 8.5 ESE 32 39 17 21 1017.0 - 0.2
24/12:30pm 28.6 23.4 12.7 37 9.3 ESE 32 43 17 23 1017.4 - 0.2
24/12:00pm 28.3 22.4 10.4 32 10.1 ESE 32 43 17 23 1017.9 1017.8 0.2
24/11:30am 28.5 23.0 12.4 37 9.4 ESE 33 43 18 23 1018.0 - 0.2
24/11:00am 28.1 22.8 13.1 39 8.8 SE 33 43 18 23 1018.4 - 0.2
24/10:30am 27.7 22.7 13.5 41 8.4 ESE 32 39 17 21 1018.6 - 0.2
24/10:00am 27.3 23.7 15.3 48 7.3 ESE 28 35 15 19 1018.9 - 0.0
24/09:30am 26.6 22.3 15.4 50 6.8 ESE 32 39 17 21 1019.0 - 0.0
24/09:00am 24.9 24.3 18.8 69 3.9 SE 20 26 11 14 1019.1 1019.0 4.6
24/08:30am 24.6 24.8 19.3 72 3.4 SSE 17 24 9 13 1018.9 - 4.6
24/08:00am 22.6 23.0 19.1 80 2.2 SSE 15 20 8 11 1018.8 - 4.6
24/07:30am 21.8 22.2 18.9 83 1.8 SE 15 20 8 11 1018.6 - 4.2
24/07:00am 21.9 22.0 18.4 80 2.2 S 15 22 8 12 1018.1 - 4.2
24/06:30am 21.9 21.6 18.2 79 2.3 S 17 24 9 13 1017.8 - 4.2
24/06:00am 21.4 21.7 18.7 84 1.7 SSE 15 19 8 10 1017.6 1017.5 4.2
24/05:30am 21.6 21.8 18.6 83 1.9 S 15 24 8 13 1017.3 - 4.2
24/05:00am 21.8 21.9 18.3 80 2.2 SSE 15 22 8 12 1016.9 - 4.2
24/04:30am 21.5 22.1 18.5 83 1.9 SE 13 20 7 11 1016.7 - 4.2
24/04:00am 21.3 21.9 18.7 85 1.6 SSE 13 19 7 10 1016.5 - 4.2
24/03:30am 20.7 21.9 19.1 90 1.0 SSE 11 15 6 8 1016.6 - 4.2
24/03:00am 20.4 21.3 19.3 93 0.7 S 13 15 7 8 1016.7 1016.6 4.2
24/02:43am 21.0 20.8 19.4 90 1.0 SE 19 26 10 14 1016.9 - 1.6
24/02:30am 21.8 21.6 18.6 82 2.0 S 17 26 9 14 1016.6 - 0.4
24/02:00am 21.9 22.3 18.2 79 2.3 SSE 13 22 7 12 1016.9 - 0.4
24/01:30am 21.8 21.6 18.4 81 2.1 SSE 17 28 9 15 1017.2 - 0.4
24/01:00am 21.7 21.9 18.5 82 2.0 SSE 15 20 8 11 1017.6 - 0.4
24/12:30am 21.9 21.3 18.4 80 2.2 S 19 28 10 15 1018.0 - 0.4
24/12:00am 22.0 21.8 18.5 80 2.2 S 17 28 9 15 1018.3 1018.2 0.4
 
Date/Time
EST
Temp
°C
App
Temp
°C
Dew
Point
Rel
Hum
%
Delta-T
°C
Wind Press
QNH
hPa
Press
MSL
hPa
Rain
since 9 am
mm
Dir
 
Spd
km/h
Gust
km/h
Spd
kts
Gust
kts
23/11:30pm 22.0 22.0 18.1 78 2.4 S 15 22 8 12 1018.6 - 0.4
23/11:00pm 21.9 22.4 18.4 80 2.2 S 13 26 7 14 1018.8 - 0.4
23/10:30pm 22.2 22.2 18.2 78 2.5 S 15 24 8 13 1018.8 - 0.4
23/10:00pm 22.1 22.2 18.3 79 2.4 S 15 26 8 14 1018.9 - 0.4
23/09:30pm 22.2 22.3 18.4 79 2.4 S 15 22 8 12 1018.8 - 0.4
23/09:00pm 22.3 22.5 18.5 79 2.4 S 15 26 8 14 1018.5 1018.4 0.4
23/08:30pm 21.9 22.4 18.4 80 2.2 S 13 30 7 16 1018.3 - 0.4
23/08:00pm 21.5 22.1 19.5 88 1.3 SSE 15 24 8 13 1017.9 - 0.4
23/07:30pm 24.1 22.5 16.6 63 4.6 SSE 20 28 11 15 1017.6 - 0.2
23/07:00pm 24.0 21.8 17.0 65 4.3 SSE 24 33 13 18 1017.2 - 0.2
23/06:30pm 24.2 21.7 17.1 64 4.4 SE 26 33 14 18 1016.8 - 0.2
23/06:00pm 24.6 21.1 16.6 61 4.9 SE 30 37 16 20 1016.5 1016.4 0.2
23/05:30pm 25.6 21.9 16.9 58 5.4 SE 32 37 17 20 1016.0 - 0.2
23/05:00pm 26.3 22.2 16.4 54 6.1 SE 33 43 18 23 1015.5 - 0.2
23/04:30pm 27.2 22.8 16.7 52 6.5 ESE 35 41 19 22 1015.0 - 0.2
23/04:00pm 27.2 23.0 16.3 51 6.7 ESE 33 43 18 23 1014.9 - 0.2
23/03:30pm 27.6 22.8 15.7 48 7.3 ESE 35 46 19 25 1014.9 - 0.2
23/03:00pm 28.0 22.6 16.0 48 7.4 ESE 39 50 21 27 1015.1 1015.0 0.2
23/02:30pm 27.4 21.5 16.8 52 6.6 ESE 43 54 23 29 1015.1 - 0.2
23/02:00pm 29.3 23.9 15.9 44 8.3 ESE 39 50 21 27 1015.2 - 0.2
23/01:30pm 28.4 23.5 16.3 47 7.5 ESE 37 50 20 27 1015.5 - 0.2
23/01:00pm 29.4 23.4 15.4 42 8.6 ESE 41 50 22 27 1015.7 - 0.2
23/12:30pm 29.4 22.7 13.4 37 9.5 ESE 41 54 22 29 1016.1 - 0.2
23/12:00pm 29.2 22.7 14.0 39 9.1 ESE 41 52 22 28 1016.6 1016.5 0.2
23/11:30am 29.5 23.1 13.3 37 9.6 ESE 39 54 21 29 1017.1 - 0.2
23/11:00am 28.5 22.3 13.9 40 8.7 ESE 39 50 21 27 1017.5 - 0.2
23/10:30am 28.5 22.3 13.7 40 8.8 SE 39 48 21 26 1017.7 - 0.2
23/10:00am 28.4 23.2 14.6 43 8.3 SE 35 46 19 25 1018.0 - 0.2
23/09:30am 28.0 22.8 14.5 43 8.1 SE 35 48 19 26 1018.2 - 0.2
23/09:00am 27.0 23.0 15.3 48 7.1 SSE 30 39 16 21 1018.3 1018.2 0.0
23/08:30am 26.4 23.0 15.9 52 6.4 SSE 28 37 15 20 1018.3 - 0.0
23/08:00am 24.5 22.3 16.9 62 4.7 SSE 24 33 13 18 1018.2 - 0.0
23/07:30am 23.0 21.1 16.8 68 3.8 SSE 22 33 12 18 1018.0 - 0.0
23/07:00am 22.7 21.9 17.0 70 3.5 SSE 17 26 9 14 1017.8 - 0.0
23/06:30am 22.0 21.8 16.7 72 3.2 S 13 22 7 12 1017.4 - 0.0
23/06:00am 21.1 20.9 16.8 76 2.6 S 13 19 7 10 1017.2 1017.1 0.0
23/05:30am 20.8 20.3 17.0 79 2.3 SSE 15 22 8 12 1017.0 - 0.0
23/05:00am 21.4 20.6 17.0 76 2.7 SSE 17 24 9 13 1016.7 - 0.0
23/04:30am 21.5 20.8 16.4 72 3.1 SSE 15 22 8 12 1016.4 - 0.0
23/04:00am 21.6 20.6 16.5 73 3.1 SSE 17 26 9 14 1016.4 - 0.0
23/03:30am 21.8 20.8 16.7 73 3.1 S 17 26 9 14 1016.4 - 0.0
23/03:00am 21.9 21.4 17.0 73 3.0 SSE 15 22 8 12 1016.6 1016.5 0.0
23/02:30am 21.6 21.3 17.4 77 2.6 SSE 15 22 8 12 1016.9 - 0.0
23/02:00am 21.7 21.5 17.6 77 2.5 SSE 15 26 8 14 1017.1 - 0.0
23/01:30am 21.8 21.0 17.9 78 2.4 SSE 19 28 10 15 1017.4 - 0.0
23/01:00am 21.9 21.5 18.0 78 2.4 S 17 26 9 14 1017.8 - 0.0
23/12:30am 21.9 22.3 18.2 79 2.3 S 13 20 7 11 1018.3 - 0.0
23/12:00am 22.1 21.9 18.6 80 2.2 SSE 17 26 9 14 1018.7 1018.6 0.0
 
Date/Time
EST
Temp
°C
App
Temp
°C
Dew
Point
Rel
Hum
%
Delta-T
°C
Wind Press
QNH
hPa
Press
MSL
hPa
Rain
since 9 am
mm
Dir
 
Spd
km/h
Gust
km/h
Spd
kts
Gust
kts
22/11:30pm 22.9 22.7 17.6 72 3.3 SSE 15 17 8 9 1018.9 - 0.0
22/11:00pm 23.5 20.7 17.3 68 3.8 SE 28 33 15 18 1019.2 - 0.0
22/10:30pm 22.8 22.3 17.8 73 3.1 SSE 17 24 9 13 1019.3 - 0.0
22/10:00pm 22.9 22.7 17.7 72 3.2 SSE 15 24 8 13 1019.3 - 0.0
22/09:30pm 23.3 22.2 17.7 71 3.5 SSE 20 28 11 15 1019.0 - 0.0
22/09:00pm 23.4 22.3 17.4 69 3.7 SSE 19 30 10 16 1018.7 1018.6 0.0
22/08:30pm 23.4 22.0 17.1 67 3.9 SSE 20 28 11 15 1018.5 - 0.0
22/08:00pm 23.3 21.9 16.9 67 3.9 SSE 20 28 11 15 1018.3 - 0.0
22/07:30pm 23.6 20.9 17.5 68 3.8 SE 28 35 15 19 1018.0 - 0.0
22/07:00pm 23.8 21.0 17.2 66 4.1 SE 28 35 15 19 1017.7 - 0.0
22/06:30pm 24.1 21.0 16.6 63 4.6 SE 28 35 15 19 1017.4 - 0.0
22/06:00pm 24.6 20.5 16.0 58 5.2 SE 32 37 17 20 1017.2 1017.1 0.0
22/05:30pm 25.2 20.4 15.6 55 5.8 SE 35 44 19 24 1017.0 - 0.0
22/05:00pm 25.6 20.2 14.9 51 6.4 SE 37 46 20 25 1016.7 - 0.0
22/04:30pm 26.5 20.5 14.4 47 7.2 SSE 39 48 21 26 1016.5 - 0.0
22/04:00pm 27.6 21.9 14.2 43 8.0 SE 37 48 20 26 1016.3 - 0.0
22/03:30pm 27.7 20.9 14.4 44 8.0 SE 43 52 23 28 1016.1 - 0.0
22/03:00pm 27.9 20.5 14.2 43 8.2 SE 46 57 25 31 1016.1 1016.0 0.0
22/02:30pm 28.6 22.5 17.7 51 6.9 SE 46 56 25 30 1016.3 - 0.0
22/02:00pm 28.8 21.2 14.6 42 8.6 SE 48 65 26 35 1016.4 - 0.0
22/01:30pm 29.0 22.3 15.2 43 8.4 SE 44 59 24 32 1016.7 - 0.0
22/01:00pm 28.6 21.9 14.5 42 8.5 SE 43 57 23 31 1017.3 - 0.0
22/12:30pm 29.6 23.2 14.4 39 9.2 SE 41 59 22 32 1017.6 - 0.0
22/12:00pm 29.1 22.1 13.7 38 9.2 SE 43 54 23 29 1018.0 1017.9 0.0
22/11:30am 28.9 21.9 13.6 39 9.1 SE 43 57 23 31 1018.4 - 0.0
22/11:00am 29.1 21.9 13.0 37 9.5 SE 43 56 23 30 1018.6 - 0.0

Other Formats:

Comma delimited format used in spreadsheet applications
http://www.bom.gov.au/fwo/IDQ60801/IDQ60801.94287.axf

JavaScript Object Notation format (JSON) in row-major order
http://www.bom.gov.au/fwo/IDQ60801/IDQ60801.94287.json